createdAt,value
2022-11-07T00:00:33.791Z,982.4
2022-11-07T00:02:35.315Z,982.4
2022-11-07T00:04:36.842Z,982.5
2022-11-07T00:08:39.365Z,982.6
2022-11-07T00:10:41.109Z,982.4
2022-11-07T00:12:42.216Z,982.6
2022-11-07T00:14:43.329Z,982.5
2022-11-07T00:16:45.221Z,982.6
2022-11-07T00:18:47.105Z,982.6
2022-11-07T00:20:48.103Z,982.6
2022-11-07T00:22:49.596Z,982.6
2022-11-07T00:24:51.326Z,982.6
2022-11-07T00:26:52.555Z,982.7
2022-11-07T00:28:53.815Z,982.8
2022-11-07T00:30:55.307Z,982.8
2022-11-07T00:33:00.128Z,982.8
2022-11-07T00:34:58.063Z,982.9
2022-11-07T00:36:59.885Z,982.9
2022-11-07T00:39:00.863Z,983
2022-11-07T00:41:02.565Z,983
2022-11-07T00:43:04.328Z,983
2022-11-07T00:45:06.167Z,983
2022-11-07T00:47:07.246Z,983.1
2022-11-07T00:51:09.773Z,983.1
2022-11-07T00:53:11.377Z,983.2
2022-11-07T00:57:14.400Z,983.2
2022-11-07T00:59:15.965Z,983.2
2022-11-07T01:01:17.879Z,983.3
2022-11-07T01:03:18.984Z,983.3
2022-11-07T01:05:20.322Z,983.3
2022-11-07T01:07:22.090Z,983.3
2022-11-07T01:09:23.721Z,983.3
2022-11-07T01:11:25.475Z,983.3
2022-11-07T01:13:27.356Z,983.3
2022-11-07T01:15:28.862Z,983.2
2022-11-07T01:17:30.075Z,983.3
2022-11-07T01:19:31.623Z,983.2
2022-11-07T01:20:15.428Z,983.2
2022-11-07T01:22:16.826Z,983.1
2022-11-07T01:24:18.620Z,983.2
2022-11-07T01:26:19.701Z,983.2
2022-11-07T01:28:20.897Z,983.2
2022-11-07T01:30:22.609Z,983.2
2022-11-07T01:34:25.739Z,983.2
2022-11-07T01:36:27.111Z,983.3
2022-11-07T01:38:28.214Z,983.1
2022-11-07T01:40:30.044Z,983.2
2022-11-07T01:42:31.198Z,983.2
2022-11-07T01:44:40.565Z,983.2
2022-11-07T01:46:34.158Z,983.1
2022-11-07T01:48:35.807Z,983.1
2022-11-07T01:50:37.229Z,983.2
2022-11-07T01:52:39.000Z,983.2
2022-11-07T01:54:40.181Z,983.1
2022-11-07T01:56:41.714Z,983.2
2022-11-07T01:58:43.341Z,983.1
2022-11-07T02:00:44.301Z,983.2
2022-11-07T02:02:46.253Z,983.2
2022-11-07T02:04:47.189Z,983.1
2022-11-07T02:06:49.063Z,983.1
2022-11-07T02:08:50.493Z,983.1
2022-11-07T02:10:51.518Z,983.1
2022-11-07T02:12:53.283Z,983.1
2022-11-07T02:14:55.162Z,983.2
2022-11-07T02:16:56.560Z,983.1
2022-11-07T02:18:57.765Z,983.1
2022-11-07T02:20:59.485Z,983.1
2022-11-07T02:23:01.090Z,983
2022-11-07T02:25:02.394Z,983.1
2022-11-07T02:27:04.173Z,983.1
2022-11-07T02:29:05.852Z,983.1
2022-11-07T02:31:07.094Z,983.2
2022-11-07T02:33:08.560Z,983.1
2022-11-07T02:35:09.902Z,983.1
2022-11-07T02:37:11.383Z,983.1
2022-11-07T02:39:12.610Z,983.1
2022-11-07T02:41:13.777Z,983.1
2022-11-07T02:43:15.034Z,983.1
2022-11-07T02:45:16.252Z,983
2022-11-07T02:47:17.962Z,983
2022-11-07T02:49:19.164Z,983
2022-11-07T02:51:20.643Z,983
2022-11-07T02:53:22.161Z,983
2022-11-07T02:55:23.738Z,983.1
2022-11-07T02:59:27.051Z,983
2022-11-07T03:01:27.621Z,983
2022-11-07T03:03:29.364Z,983.1
2022-11-07T03:05:30.737Z,983.1
2022-11-07T03:09:33.518Z,983.2
2022-11-07T03:11:35.215Z,983.2
2022-11-07T03:13:36.640Z,983.1
2022-11-07T03:15:37.793Z,983.1
2022-11-07T03:17:39.470Z,983
2022-11-07T03:19:41.259Z,983.1
2022-11-07T03:21:42.754Z,983.2
2022-11-07T03:23:44.452Z,983.1
2022-11-07T03:25:45.463Z,983.2
2022-11-07T03:27:47.048Z,983.2
2022-11-07T03:29:48.730Z,983.2
2022-11-07T03:31:50.321Z,983.1
2022-11-07T03:33:51.583Z,983.2
2022-11-07T03:35:52.763Z,983.1
2022-11-07T03:37:53.928Z,983.2
2022-11-07T03:39:55.527Z,983.2
2022-11-07T03:41:56.669Z,983.1
2022-11-07T03:43:58.552Z,983.1
2022-11-07T03:45:59.555Z,983.1
2022-11-07T03:48:00.537Z,983.1
2022-11-07T03:50:02.220Z,983.3
2022-11-07T03:52:03.800Z,983.2
2022-11-07T03:54:05.323Z,983.3
2022-11-07T03:58:07.819Z,983.3
2022-11-07T04:00:08.853Z,983.3
2022-11-07T04:02:10.258Z,983.3
2022-11-07T04:04:11.928Z,983.3
2022-11-07T04:06:13.300Z,983.4
2022-11-07T04:08:14.740Z,983.4
2022-11-07T04:10:16.616Z,983.5
2022-11-07T04:12:17.828Z,983.6
2022-11-07T04:14:19.049Z,983.6
2022-11-07T04:16:20.453Z,983.6
2022-11-07T04:18:21.687Z,983.6
2022-11-07T04:20:22.746Z,983.6
2022-11-07T04:22:24.219Z,983.6
2022-11-07T04:24:25.305Z,983.6
2022-11-07T04:26:27.187Z,983.6
2022-11-07T04:28:28.796Z,983.7
2022-11-07T04:30:30.163Z,983.6
2022-11-07T04:32:31.206Z,983.6
2022-11-07T04:34:32.773Z,983.6
2022-11-07T04:36:34.206Z,983.6
2022-11-07T04:38:35.255Z,983.7
2022-11-07T04:40:36.236Z,983.7
2022-11-07T04:42:37.377Z,983.7
2022-11-07T04:44:38.366Z,983.7
2022-11-07T04:46:39.984Z,983.6
2022-11-07T04:48:41.017Z,983.7
2022-11-07T04:50:42.192Z,983.7
2022-11-07T04:52:43.211Z,983.8
2022-11-07T04:54:44.242Z,983.7
2022-11-07T04:56:45.507Z,983.8
2022-11-07T04:58:46.600Z,983.8
2022-11-07T05:00:47.790Z,983.8
2022-11-07T05:02:48.850Z,983.8
2022-11-07T05:04:50.647Z,983.8
2022-11-07T05:06:52.054Z,983.8
2022-11-07T05:08:53.648Z,983.8
2022-11-07T05:10:55.247Z,983.8
2022-11-07T05:12:56.199Z,983.8
2022-11-07T05:14:58.046Z,983.7
2022-11-07T05:16:59.300Z,983.8
2022-11-07T05:19:01.098Z,983.8
2022-11-07T05:23:04.255Z,983.8
2022-11-07T05:25:06.067Z,983.8
2022-11-07T05:27:07.311Z,983.8
2022-11-07T05:29:08.945Z,983.8
2022-11-07T05:33:12.800Z,983.8
2022-11-07T05:35:13.668Z,983.8
2022-11-07T05:37:15.446Z,983.8
2022-11-07T05:39:17.062Z,983.8
2022-11-07T05:41:18.590Z,983.8
2022-11-07T05:43:19.846Z,983.7
2022-11-07T05:45:21.251Z,983.7
2022-11-07T05:47:23.115Z,983.7
2022-11-07T05:49:24.532Z,983.7
2022-11-07T05:51:25.558Z,983.8
2022-11-07T05:53:27.197Z,983.9
2022-11-07T05:55:28.671Z,983.8
2022-11-07T05:57:30.073Z,983.9
2022-11-07T05:59:31.672Z,983.9
2022-11-07T06:01:33.305Z,983.9
2022-11-07T06:05:36.756Z,983.9
2022-11-07T06:07:37.812Z,983.9
2022-11-07T06:09:39.019Z,984.1
2022-11-07T06:11:40.570Z,983.9
2022-11-07T06:13:41.513Z,984.1
2022-11-07T06:15:43.294Z,984.1
2022-11-07T06:17:44.624Z,984.1
2022-11-07T06:21:47.123Z,984.1
2022-11-07T06:23:48.701Z,984.1
2022-11-07T06:25:49.714Z,984.1
2022-11-07T06:27:51.171Z,984.1
2022-11-07T06:29:52.278Z,984.1
2022-11-07T06:31:53.462Z,984.1
2022-11-07T06:33:54.642Z,984.2
2022-11-07T06:35:55.909Z,984.2
2022-11-07T06:37:57.358Z,984.2
2022-11-07T06:39:58.304Z,984.3
2022-11-07T06:41:59.950Z,984.2
2022-11-07T06:44:01.759Z,984.2
2022-11-07T06:46:02.958Z,984.3
2022-11-07T06:48:04.177Z,984.3
2022-11-07T06:50:05.552Z,984.3
2022-11-07T06:52:07.499Z,984.4
2022-11-07T06:54:09.238Z,984.4
2022-11-07T06:56:10.655Z,984.5
2022-11-07T06:58:12.336Z,984.4
2022-11-07T07:00:13.842Z,984.4
2022-11-07T07:02:44.116Z,984.4
2022-11-07T07:04:16.647Z,984.3
2022-11-07T07:06:17.981Z,984.5
2022-11-07T07:08:19.288Z,984.5
2022-11-07T07:10:20.471Z,984.5
2022-11-07T07:12:22.057Z,984.6
2022-11-07T07:14:23.335Z,984.6
2022-11-07T07:16:25.044Z,984.5
2022-11-07T07:18:26.005Z,984.6
2022-11-07T07:20:27.807Z,984.6
2022-11-07T07:22:29.290Z,984.6
2022-11-07T07:24:30.881Z,984.6
2022-11-07T07:26:32.014Z,984.6
2022-11-07T07:28:33.811Z,984.7
2022-11-07T07:30:35.128Z,984.7
2022-11-07T07:32:36.491Z,984.8
2022-11-07T07:34:38.041Z,984.8
2022-11-07T07:36:39.331Z,984.7
2022-11-07T07:38:40.776Z,984.7
2022-11-07T07:40:41.803Z,984.7
2022-11-07T07:42:42.922Z,984.7
2022-11-07T07:46:45.589Z,984.8
2022-11-07T07:48:47.298Z,984.8
2022-11-07T07:50:48.664Z,984.8
2022-11-07T07:52:49.927Z,984.8
2022-11-07T07:56:52.412Z,984.7
2022-11-07T07:58:54.208Z,984.7
2022-11-07T08:00:55.790Z,984.8
2022-11-07T08:02:57.094Z,984.8
2022-11-07T08:04:58.044Z,984.8
2022-11-07T08:05:41.806Z,984.7
2022-11-07T08:07:43.653Z,984.8
2022-11-07T08:09:45.341Z,984.7
2022-11-07T08:11:46.838Z,984.7
2022-11-07T08:13:48.239Z,984.8
2022-11-07T08:15:49.862Z,984.9
2022-11-07T08:17:51.401Z,984.8
2022-11-07T08:19:52.940Z,984.8
2022-11-07T08:21:53.976Z,984.8
2022-11-07T08:23:55.165Z,984.7
2022-11-07T08:25:56.737Z,984.7
2022-11-07T08:27:58.547Z,984.8
2022-11-07T08:30:00.235Z,984.8
2022-11-07T08:32:01.197Z,984.8
2022-11-07T08:34:02.583Z,984.8
2022-11-07T08:36:03.780Z,984.8
2022-11-07T08:40:06.731Z,984.9
2022-11-07T08:42:08.460Z,984.9
2022-11-07T08:44:10.308Z,984.9
2022-11-07T08:46:12.169Z,984.9
2022-11-07T08:48:13.171Z,985
2022-11-07T08:50:14.363Z,984.9
2022-11-07T08:52:16.009Z,984.9
2022-11-07T08:54:16.921Z,985
2022-11-07T08:56:18.293Z,984.9
2022-11-07T08:58:19.550Z,984.9
2022-11-07T09:00:20.886Z,984.9
2022-11-07T09:03:18.253Z,984.9
2022-11-07T09:04:23.605Z,984.9
2022-11-07T09:06:24.598Z,984.9
2022-11-07T09:08:25.753Z,984.8
2022-11-07T09:10:27.390Z,984.9
2022-11-07T09:12:28.883Z,984.9
2022-11-07T09:14:29.856Z,984.8
2022-11-07T09:16:31.024Z,984.9
2022-11-07T09:18:32.287Z,985
2022-11-07T09:20:33.851Z,985
2022-11-07T09:22:34.914Z,985
2022-11-07T09:24:35.840Z,985.1
2022-11-07T09:26:36.937Z,984.9
2022-11-07T09:28:38.662Z,985
2022-11-07T09:30:40.494Z,985
2022-11-07T09:32:44.811Z,984.9
2022-11-07T09:34:43.583Z,984.9
2022-11-07T09:36:44.908Z,985
2022-11-07T09:38:46.064Z,985
2022-11-07T09:40:47.540Z,984.9
2022-11-07T09:42:48.782Z,985
2022-11-07T09:44:50.293Z,985
2022-11-07T09:46:51.496Z,985
2022-11-07T09:48:53.100Z,984.9
2022-11-07T09:50:54.579Z,985
2022-11-07T09:52:55.529Z,985.1
2022-11-07T09:54:56.618Z,985
2022-11-07T09:56:57.760Z,985
2022-11-07T09:58:58.662Z,985.1
2022-11-07T10:01:00.339Z,985.1
2022-11-07T10:03:01.254Z,985
2022-11-07T10:05:02.523Z,985
2022-11-07T10:07:03.502Z,985
2022-11-07T10:09:05.009Z,985
2022-11-07T10:11:06.550Z,985.1
2022-11-07T10:13:08.055Z,985.1
2022-11-07T10:15:09.727Z,985
2022-11-07T10:17:11.778Z,985
2022-11-07T10:21:36.899Z,985
2022-11-07T10:23:17.118Z,985
2022-11-07T10:25:17.710Z,984.9
2022-11-07T10:27:19.477Z,985
2022-11-07T10:29:20.643Z,985
2022-11-07T10:31:22.110Z,985.1
2022-11-07T10:33:23.779Z,985.1
2022-11-07T10:35:24.799Z,985
2022-11-07T10:37:26.461Z,984.9
2022-11-07T10:39:27.332Z,985
2022-11-07T10:41:28.157Z,984.9
2022-11-07T10:43:29.191Z,985
2022-11-07T10:45:30.657Z,984.9
2022-11-07T10:47:32.414Z,984.9
2022-11-07T10:49:34.012Z,984.9
2022-11-07T10:51:35.227Z,985
2022-11-07T10:53:36.650Z,984.9
2022-11-07T10:55:37.934Z,984.9
2022-11-07T10:57:39.530Z,984.9
2022-11-07T10:59:41.205Z,984.8
2022-11-07T11:03:45.302Z,984.8
2022-11-07T11:05:45.357Z,984.8
2022-11-07T11:07:46.787Z,984.8
2022-11-07T11:09:48.502Z,984.8
2022-11-07T11:11:49.942Z,984.8
2022-11-07T11:13:51.648Z,984.9
2022-11-07T11:15:53.171Z,984.8
2022-11-07T11:19:55.465Z,985
2022-11-07T11:21:57.294Z,984.8
2022-11-07T11:23:58.835Z,984.9
2022-11-07T11:26:00.191Z,985
2022-11-07T11:28:01.699Z,985
2022-11-07T11:30:02.789Z,984.9
2022-11-07T11:32:04.366Z,985
2022-11-07T11:34:05.864Z,985
2022-11-07T11:36:06.918Z,985.1
2022-11-07T11:38:08.122Z,984.9
2022-11-07T11:40:09.976Z,984.9
2022-11-07T11:42:11.698Z,984.9
2022-11-07T11:44:13.022Z,984.8
2022-11-07T11:46:14.153Z,984.9
2022-11-07T11:48:15.182Z,984.9
2022-11-07T11:50:16.384Z,984.9
2022-11-07T11:52:18.081Z,984.8
2022-11-07T11:54:19.258Z,984.9
2022-11-07T11:56:20.317Z,984.9
2022-11-07T11:58:22.015Z,985
2022-11-07T12:02:24.792Z,985
2022-11-07T12:04:26.041Z,985
2022-11-07T12:06:27.239Z,984.9
2022-11-07T12:08:28.639Z,984.9
2022-11-07T12:10:29.841Z,984.9
2022-11-07T12:12:30.988Z,984.9
2022-11-07T12:14:32.239Z,985.1
2022-11-07T12:16:33.915Z,985
2022-11-07T12:18:35.356Z,985.1
2022-11-07T12:20:36.698Z,985.1
2022-11-07T12:22:37.888Z,985.2
2022-11-07T12:24:39.242Z,985.1
2022-11-07T12:28:42.438Z,985
2022-11-07T12:30:44.051Z,984.9
2022-11-07T12:32:45.035Z,985
2022-11-07T12:34:46.400Z,984.9
2022-11-07T12:38:48.975Z,984.9
2022-11-07T12:40:49.868Z,984.8
2022-11-07T12:42:54.786Z,984.7
2022-11-07T12:44:52.752Z,984.8
2022-11-07T12:46:53.976Z,984.8
2022-11-07T12:48:55.649Z,984.8
2022-11-07T12:50:57.214Z,984.7
2022-11-07T12:52:58.939Z,984.8
2022-11-07T12:55:00.361Z,984.8
2022-11-07T12:57:02.008Z,984.8
2022-11-07T12:59:02.883Z,984.8
2022-11-07T13:01:03.930Z,984.8
2022-11-07T13:03:04.793Z,984.8
2022-11-07T13:05:06.195Z,984.8
2022-11-07T13:07:07.117Z,984.7
2022-11-07T13:09:08.543Z,984.8
2022-11-07T13:11:09.956Z,984.7
2022-11-07T13:13:11.757Z,984.7
2022-11-07T13:15:13.383Z,984.6
2022-11-07T13:17:14.667Z,984.6
2022-11-07T13:19:16.558Z,984.7
2022-11-07T13:21:17.466Z,984.5
2022-11-07T13:23:18.602Z,984.6
2022-11-07T13:27:20.850Z,984.6
2022-11-07T13:29:22.594Z,984.5
2022-11-07T13:31:24.209Z,984.5
2022-11-07T13:33:25.618Z,984.5
2022-11-07T13:35:26.943Z,984.6
2022-11-07T13:37:27.854Z,984.5
2022-11-07T13:39:28.716Z,984.6
2022-11-07T13:41:29.754Z,984.4
2022-11-07T13:43:30.833Z,984.5
2022-11-07T13:45:32.165Z,984.4
2022-11-07T13:47:33.144Z,984.5
2022-11-07T13:49:34.197Z,984.5
2022-11-07T13:51:35.307Z,984.5
2022-11-07T13:53:36.569Z,984.5
2022-11-07T13:55:37.947Z,984.4
2022-11-07T13:57:39.501Z,984.5
2022-11-07T13:59:41.030Z,984.4
2022-11-07T14:01:42.704Z,984.5
2022-11-07T14:03:43.850Z,984.4
2022-11-07T14:05:45.002Z,984.3
2022-11-07T14:07:45.972Z,984.4
2022-11-07T14:09:47.701Z,984.5
2022-11-07T14:11:48.566Z,984.5
2022-11-07T14:15:51.638Z,984.4
2022-11-07T14:17:52.660Z,984.5
2022-11-07T14:19:54.335Z,984.5
2022-11-07T14:21:56.119Z,984.5
2022-11-07T14:23:56.987Z,984.6
2022-11-07T14:25:58.788Z,984.4
2022-11-07T14:28:00.208Z,984.5
2022-11-07T14:32:01.961Z,984.6
2022-11-07T14:34:03.627Z,984.6
2022-11-07T14:36:05.424Z,984.6
2022-11-07T14:38:06.516Z,984.5
2022-11-07T14:40:07.860Z,984.6
2022-11-07T14:42:09.366Z,984.6
2022-11-07T14:44:10.484Z,984.6
2022-11-07T14:46:13.447Z,984.6
2022-11-07T14:48:14.236Z,984.6
2022-11-07T14:50:14.852Z,984.6
2022-11-07T14:52:59.633Z,984.6
2022-11-07T14:55:01.277Z,984.6
2022-11-07T14:57:02.303Z,984.6
2022-11-07T14:59:03.384Z,984.5
2022-11-07T15:03:06.456Z,984.6
2022-11-07T15:05:11.085Z,984.7
2022-11-07T15:07:08.988Z,984.6
2022-11-07T15:09:10.187Z,984.7
2022-11-07T15:11:11.900Z,984.6
2022-11-07T15:13:13.273Z,984.5
2022-11-07T15:15:15.012Z,984.5
2022-11-07T15:17:16.079Z,984.6
2022-11-07T15:19:17.414Z,984.5
2022-11-07T15:21:18.738Z,984.6
2022-11-07T15:23:20.414Z,984.6
2022-11-07T15:25:21.565Z,984.6
2022-11-07T15:27:22.990Z,984.6
2022-11-07T15:29:24.065Z,984.6
2022-11-07T15:31:25.834Z,984.6
2022-11-07T15:33:26.827Z,984.6
2022-11-07T15:35:43.318Z,984.6
2022-11-07T15:37:29.265Z,984.5
2022-11-07T15:39:30.649Z,984.6
2022-11-07T15:41:31.625Z,984.6
2022-11-07T15:43:32.677Z,984.5
2022-11-07T15:45:34.539Z,984.6
2022-11-07T15:47:36.280Z,984.6
2022-11-07T15:49:37.967Z,984.6
2022-11-07T15:51:39.627Z,984.6
2022-11-07T15:53:40.985Z,984.5
2022-11-07T15:55:42.155Z,984.6
2022-11-07T15:57:43.227Z,984.6
2022-11-07T15:59:44.738Z,984.6
2022-11-07T16:01:46.066Z,984.7
2022-11-07T16:03:47.324Z,984.6
2022-11-07T16:07:57.671Z,984.7
2022-11-07T16:09:51.041Z,984.6
2022-11-07T16:11:52.528Z,984.6
2022-11-07T16:14:09.010Z,984.6
2022-11-07T16:15:55.213Z,984.7
2022-11-07T16:17:56.593Z,984.7
2022-11-07T16:20:01.300Z,984.7
2022-11-07T16:21:59.682Z,984.7
2022-11-07T16:24:00.744Z,984.6
2022-11-07T16:26:02.630Z,984.7
2022-11-07T16:28:03.591Z,984.7
2022-11-07T16:30:04.901Z,984.7
2022-11-07T16:34:07.052Z,984.7
2022-11-07T16:36:08.631Z,984.7
2022-11-07T16:38:10.242Z,984.7
2022-11-07T16:40:11.787Z,984.8
2022-11-07T16:42:13.010Z,984.7
2022-11-07T16:44:14.724Z,984.8
2022-11-07T16:46:16.140Z,984.8
2022-11-07T16:48:17.458Z,984.7
2022-11-07T16:50:18.844Z,984.7
2022-11-07T16:52:20.019Z,984.7
2022-11-07T16:54:21.445Z,984.7
2022-11-07T16:56:22.397Z,984.7
2022-11-07T16:58:23.735Z,984.7
2022-11-07T17:00:25.559Z,984.7
2022-11-07T17:02:27.486Z,984.6
2022-11-07T17:04:28.819Z,984.6
2022-11-07T17:06:30.138Z,984.6
2022-11-07T17:08:31.870Z,984.6
2022-11-07T17:10:33.654Z,984.7
2022-11-07T17:12:34.667Z,984.7
2022-11-07T17:14:35.627Z,984.6
2022-11-07T17:16:37.480Z,984.7
2022-11-07T17:18:39.203Z,984.6
2022-11-07T17:20:50.765Z,984.6
2022-11-07T17:22:41.799Z,984.6
2022-11-07T17:24:43.184Z,984.6
2022-11-07T17:26:44.875Z,984.6
2022-11-07T17:28:45.803Z,984.6
2022-11-07T17:32:48.679Z,984.5
2022-11-07T17:35:18.077Z,984.6
2022-11-07T17:36:51.670Z,984.6
2022-11-07T17:38:52.551Z,984.5
2022-11-07T17:40:53.595Z,984.6
2022-11-07T17:42:55.074Z,984.6
2022-11-07T17:44:56.098Z,984.6
2022-11-07T17:46:57.047Z,984.7
2022-11-07T17:48:58.178Z,984.7
2022-11-07T17:50:59.960Z,984.6
2022-11-07T17:53:01.637Z,984.7
2022-11-07T17:55:03.017Z,984.7
2022-11-07T17:57:04.209Z,984.7
2022-11-07T17:59:05.232Z,984.7
2022-11-07T18:01:06.992Z,984.6
2022-11-07T18:03:08.104Z,984.7
2022-11-07T18:05:09.364Z,984.7
2022-11-07T18:07:10.432Z,984.6
2022-11-07T18:09:12.282Z,984.6
2022-11-07T18:11:13.275Z,984.7
2022-11-07T18:13:14.824Z,984.7
2022-11-07T18:15:16.041Z,984.7
2022-11-07T18:17:17.544Z,984.7
2022-11-07T18:19:18.758Z,984.7
2022-11-07T18:21:20.360Z,984.7
2022-11-07T18:23:21.741Z,984.7
2022-11-07T18:25:23.487Z,984.7
2022-11-07T18:27:24.994Z,984.7
2022-11-07T18:29:26.151Z,984.7
2022-11-07T18:31:27.547Z,984.6
2022-11-07T18:33:29.248Z,984.5
2022-11-07T18:35:30.480Z,984.7
2022-11-07T18:37:31.877Z,984.7
2022-11-07T18:39:33.237Z,984.6
2022-11-07T18:41:34.836Z,984.6
2022-11-07T18:43:36.337Z,984.7
2022-11-07T18:45:37.586Z,984.7
2022-11-07T18:47:39.160Z,984.6
2022-11-07T18:49:41.070Z,984.7
2022-11-07T18:51:42.757Z,984.7
2022-11-07T18:53:43.840Z,984.6
2022-11-07T18:57:47.355Z,984.6
2022-11-07T18:59:49.092Z,984.6
2022-11-07T19:01:50.214Z,984.6
2022-11-07T19:03:51.162Z,984.5
2022-11-07T19:07:54.132Z,984.6
2022-11-07T19:09:55.033Z,984.5
2022-11-07T19:11:56.260Z,984.6
2022-11-07T19:13:57.572Z,984.6
2022-11-07T19:15:58.521Z,984.6
2022-11-07T19:18:00.262Z,984.6
2022-11-07T19:20:01.283Z,984.7
2022-11-07T19:22:03.018Z,984.7
2022-11-07T19:24:04.347Z,984.7
2022-11-07T19:26:05.642Z,984.8
2022-11-07T19:28:06.979Z,984.7
2022-11-07T19:30:08.398Z,984.7
2022-11-07T19:32:09.490Z,984.8
2022-11-07T19:34:11.383Z,984.7
2022-11-07T19:36:12.855Z,984.7
2022-11-07T19:38:13.911Z,984.6
2022-11-07T19:40:15.013Z,984.6
2022-11-07T19:42:16.459Z,984.6
2022-11-07T19:44:18.007Z,984.6
2022-11-07T19:46:19.523Z,984.6
2022-11-07T19:48:21.254Z,984.7
2022-11-07T19:50:23.003Z,984.7
2022-11-07T19:52:23.971Z,984.6
2022-11-07T19:54:25.003Z,984.7
2022-11-07T19:56:25.957Z,984.6
2022-11-07T19:58:27.400Z,984.7
2022-11-07T20:00:28.648Z,984.5
2022-11-07T20:02:33.243Z,984.7
2022-11-07T20:04:31.223Z,984.7
2022-11-07T20:06:32.695Z,984.7
2022-11-07T20:08:34.353Z,984.7
2022-11-07T20:12:37.337Z,984.7
2022-11-07T20:14:39.226Z,984.7
2022-11-07T20:16:40.395Z,984.8
2022-11-07T20:18:42.297Z,984.7
2022-11-07T20:20:43.961Z,984.8
2022-11-07T20:22:46.318Z,984.8
2022-11-07T20:24:46.124Z,984.8
2022-11-07T20:26:47.619Z,984.6
2022-11-07T20:28:48.673Z,984.7
2022-11-07T20:30:50.555Z,984.7
2022-11-07T20:32:52.242Z,984.8
2022-11-07T20:34:54.121Z,984.8
2022-11-07T20:36:55.704Z,984.8
2022-11-07T20:38:57.144Z,984.8
2022-11-07T20:40:58.307Z,984.8
2022-11-07T20:42:59.392Z,984.8
2022-11-07T20:45:00.831Z,984.7
2022-11-07T20:47:02.212Z,984.8
2022-11-07T20:49:03.471Z,984.8
2022-11-07T20:51:04.458Z,984.8
2022-11-07T20:53:06.083Z,984.8
2022-11-07T20:55:06.943Z,984.8
2022-11-07T20:57:08.740Z,984.8
2022-11-07T20:59:10.375Z,984.8
2022-11-07T21:01:12.039Z,984.7
2022-11-07T21:03:12.926Z,984.9
2022-11-07T21:05:18.191Z,984.9
2022-11-07T21:07:15.712Z,984.8
2022-11-07T21:09:17.234Z,984.8
2022-11-07T21:11:18.650Z,984.9
2022-11-07T21:13:20.525Z,984.7
2022-11-07T21:15:21.517Z,984.9
2022-11-07T21:17:22.687Z,984.9
2022-11-07T21:19:23.862Z,984.9
2022-11-07T21:21:25.529Z,984.9
2022-11-07T21:23:26.744Z,984.9
2022-11-07T21:25:28.570Z,984.9
2022-11-07T21:27:29.594Z,984.9
2022-11-07T21:31:33.097Z,985
2022-11-07T21:33:34.701Z,985
2022-11-07T21:36:19.964Z,985
2022-11-07T21:38:21.464Z,984.8
2022-11-07T21:40:22.427Z,984.8
2022-11-07T21:42:24.266Z,984.9
2022-11-07T21:44:25.561Z,984.9
2022-11-07T21:46:27.298Z,984.9
2022-11-07T21:48:28.928Z,985
2022-11-07T21:50:43.957Z,985
2022-11-07T21:52:31.602Z,984.9
2022-11-07T21:54:32.715Z,984.9
2022-11-07T21:56:34.469Z,984.9
2022-11-07T21:58:35.577Z,984.8
2022-11-07T22:00:37.126Z,984.9
2022-11-07T22:02:38.554Z,984.8
2022-11-07T22:04:40.077Z,984.9
2022-11-07T22:06:41.830Z,984.8
2022-11-07T22:08:43.578Z,984.9
2022-11-07T22:10:44.732Z,984.9
2022-11-07T22:12:46.141Z,984.9
2022-11-07T22:14:48.057Z,984.9
2022-11-07T22:16:49.517Z,984.8
2022-11-07T22:18:50.887Z,984.9
2022-11-07T22:20:52.538Z,984.9
2022-11-07T22:22:54.481Z,984.8
2022-11-07T22:24:55.958Z,984.8
2022-11-07T22:26:57.760Z,984.9
2022-11-07T22:28:58.759Z,984.8
2022-11-07T22:31:00.198Z,984.8
2022-11-07T22:33:01.616Z,984.7
2022-11-07T22:35:07.957Z,984.7
2022-11-07T22:37:04.727Z,984.7
2022-11-07T22:39:05.760Z,984.7
2022-11-07T22:41:06.771Z,984.7
2022-11-07T22:43:08.217Z,984.8
2022-11-07T22:45:09.538Z,984.7
2022-11-07T22:47:10.777Z,984.6
2022-11-07T22:49:12.402Z,984.6
2022-11-07T22:51:13.416Z,984.6
2022-11-07T22:53:15.328Z,984.6
2022-11-07T22:55:16.337Z,984.5
2022-11-07T22:57:18.016Z,984.5
2022-11-07T22:59:19.501Z,984.4
2022-11-07T23:01:21.284Z,984.4
2022-11-07T23:03:22.805Z,984.5
2022-11-07T23:05:24.322Z,984.5
2022-11-07T23:07:25.963Z,984.5
2022-11-07T23:09:27.209Z,984.6
2022-11-07T23:13:29.190Z,984.6
2022-11-07T23:15:31.020Z,984.5
2022-11-07T23:17:32.336Z,984.5
2022-11-07T23:19:33.856Z,984.4
2022-11-07T23:21:35.689Z,984.4
2022-11-07T23:23:36.647Z,984.3
2022-11-07T23:25:38.303Z,984.3
2022-11-07T23:27:39.433Z,984.4
2022-11-07T23:29:40.514Z,984.4
2022-11-07T23:31:42.256Z,984.4
2022-11-07T23:33:43.281Z,984.5
2022-11-07T23:35:44.367Z,984.4
2022-11-07T23:39:47.393Z,984.3
2022-11-07T23:41:48.786Z,984.4
2022-11-07T23:43:52.575Z,984.3
2022-11-07T23:45:52.473Z,984.3
2022-11-07T23:47:53.582Z,984.2
2022-11-07T23:49:55.318Z,984.3
2022-11-07T23:51:56.845Z,984.3
2022-11-07T23:53:58.382Z,984.2
2022-11-07T23:56:00.279Z,984.3
2022-11-07T23:58:01.785Z,984.2
